Myrtle Beach, SC (29575)

9:30 AM EST on December 22, 2014 (GMT -0500)
Glenmeire | Change Station
CLOSE
Current Station
Personal Weather Station
Location: Myrtle Beach, SC
Elevation: 10 ft
Nearby Weather Stations

Elev 10 ft 33.66 °N, 79.00 °W | Updated 44 seconds ago

Light Rain
Light Rain Mist
43.3 °F
Feels Like 43 °F
N
1.0
Wind Variable Wind from SW
Gusts 1.0 mph

Today
High -- | Low -- °F
--% Chance of Precip.
Yesterday
High -- | Low -- °F
Precip. -- in
7:17 AM 5:12 PM
New Moon, 0% visible
Pressure 30.09 in
Visibility 1.5 miles
Clouds Overcast 300 ft
Windchill 43 °F
Dew Point 42 °F
Humidity 97%
Rainfall 0.13 in
Snow Depth Not available.
UV 0 out of 12
Pollen .50 out of 12
Air Quality Not available.
Flu Activity Not available.
METAR KMYR 221245Z 35011KT 1 1/2SM -RA BR OVC003 07/05 A3009

More Conditions Fewer Conditions

Pressure 30.09 in
Visibility 1.5 miles
Clouds Overcast 300 ft
Windchill 43 °F
Dew Point 42 °F
Humidity 97%
Rainfall 0.13 in
Snow Depth Not available.
UV 0 out of 12
Pollen .50 out of 12
Air Quality Not available.
Flu Activity Not available.
METAR KMYR 221245Z 35011KT 1 1/2SM -RA BR OVC003 07/05 A3009

More Conditions Fewer Conditions

10-Day Weather Forecast

Almanac

Astronomy

Dec. 22, 2014 Rise Set
Actual Time
Civil Twilight
Nautical Twilight
Astronomical Twilight
Moon
Length of Visible Light
Length of Day
Tomorrow will be .
, % of the Moon is Illuminated

Today's Extremes

State Highs State Lows

Community

WunderPhotos

Upload Photos

1,779,608 photos uploaded!

WunderBlogs® & News

Nearby

Air Quality

  Air Quality AQ Index Pollutant
Not available.

Snow Depth

Station Depth Elevation

Earthquake Activity

City Distance Mag. Time & Date
Minimum magnitude displayed is 2.5.

Coastal Water Temperatures

Place Temperature

Nearby Weather Stations